KAEL

Albert Lea Municipal Airport

Albert Lea, Minnesota, USA
METAR KAEL 220035Z AUTO 00000KT 10SM BKN120 M08/M12 A3061 RMK AO2
Observed Flight Rules
Feb-22 @ 00:35 UTC (4 hours ago) Visual Flight Rules
Wind Visibility Clouds
Calm 10 miles
  • Broken at 12,000' AGL
Temperatures Readings
Current -8°C / 18°F
Dewpoint -12°C / 10°F
Humidity 73%
Altimeter 30.61" Hg
Pressure 1037 hPa
Elevation 383
METAR KAEL 220035Z AUTO 00000KT 10SM BKN120 M08/M12 A3061 RMK AO2
Observed Flight Rules
Feb-22 @ 00:35 UTC
(4 hours ago)
VFR
Wind Visibility
Calm 10 miles
Clouds
  • Broken at 12,000' AGL
Temperature Dewpoint
-8°C / 18°F -12°C / 10°F
Humidity Altimeter Pressure
73% 30.61" Hg 1037 hPa